sensor_id;sensor_type;location;lat;lon;timestamp;P1;durP1;ratioP1;P2;durP2;ratioP2
59907;SDS011;61804;54.926;73.496;2023-05-08T00:00:35;8.38;;;6.28;;
59907;SDS011;61804;54.926;73.496;2023-05-08T00:03:04;8.13;;;6.70;;
59907;SDS011;61804;54.926;73.496;2023-05-08T00:05:32;9.93;;;6.97;;
59907;SDS011;61804;54.926;73.496;2023-05-08T00:08:00;9.73;;;7.68;;
59907;SDS011;61804;54.926;73.496;2023-05-08T00:10:28;13.43;;;7.13;;
59907;SDS011;61804;54.926;73.496;2023-05-08T00:12:56;26.75;;;7.90;;
59907;SDS011;61804;54.926;73.496;2023-05-08T00:15:24;6.75;;;6.00;;
59907;SDS011;61804;54.926;73.496;2023-05-08T00:17:52;8.07;;;6.15;;
59907;SDS011;61804;54.926;73.496;2023-05-08T00:20:19;11.07;;;6.13;;
59907;SDS011;61804;54.926;73.496;2023-05-08T00:22:47;10.05;;;6.95;;
59907;SDS011;61804;54.926;73.496;2023-05-08T00:25:14;12.88;;;6.78;;
59907;SDS011;61804;54.926;73.496;2023-05-08T00:27:42;8.15;;;6.72;;
59907;SDS011;61804;54.926;73.496;2023-05-08T00:30:10;7.00;;;5.70;;
59907;SDS011;61804;54.926;73.496;2023-05-08T00:32:38;14.23;;;6.88;;
59907;SDS011;61804;54.926;73.496;2023-05-08T00:35:07;9.57;;;5.70;;
59907;SDS011;61804;54.926;73.496;2023-05-08T00:37:35;6.15;;;5.13;;
59907;SDS011;61804;54.926;73.496;2023-05-08T00:40:04;12.32;;;5.93;;
59907;SDS011;61804;54.926;73.496;2023-05-08T00:42:31;13.02;;;7.25;;
59907;SDS011;61804;54.926;73.496;2023-05-08T00:44:59;19.67;;;5.57;;
59907;SDS011;61804;54.926;73.496;2023-05-08T00:47:28;10.35;;;7.60;;
59907;SDS011;61804;54.926;73.496;2023-05-08T00:49:57;8.20;;;6.13;;
59907;SDS011;61804;54.926;73.496;2023-05-08T00:52:26;9.57;;;6.50;;
59907;SDS011;61804;54.926;73.496;2023-05-08T00:54:56;9.07;;;6.05;;
59907;SDS011;61804;54.926;73.496;2023-05-08T00:57:25;10.77;;;6.70;;
59907;SDS011;61804;54.926;73.496;2023-05-08T00:59:52;14.25;;;7.63;;
59907;SDS011;61804;54.926;73.496;2023-05-08T01:02:21;15.75;;;7.47;;
59907;SDS011;61804;54.926;73.496;2023-05-08T01:04:49;21.05;;;7.57;;
59907;SDS011;61804;54.926;73.496;2023-05-08T01:07:17;7.78;;;7.07;;
59907;SDS011;61804;54.926;73.496;2023-05-08T01:09:45;7.25;;;6.55;;
59907;SDS011;61804;54.926;73.496;2023-05-08T01:14:50;10.13;;;7.47;;
59907;SDS011;61804;54.926;73.496;2023-05-08T01:17:38;8.85;;;6.47;;
59907;SDS011;61804;54.926;73.496;2023-05-08T01:20:27;13.02;;;7.03;;
59907;SDS011;61804;54.926;73.496;2023-05-08T01:33:23;7.40;;;6.30;;
59907;SDS011;61804;54.926;73.496;2023-05-08T01:35:55;10.52;;;6.95;;
59907;SDS011;61804;54.926;73.496;2023-05-08T01:38:32;11.00;;;6.18;;
59907;SDS011;61804;54.926;73.496;2023-05-08T01:45:58;13.75;;;6.30;;
59907;SDS011;61804;54.926;73.496;2023-05-08T01:48:38;11.70;;;6.90;;
59907;SDS011;61804;54.926;73.496;2023-05-08T01:51:28;10.27;;;6.20;;
59907;SDS011;61804;54.926;73.496;2023-05-08T01:53:59;12.05;;;5.65;;
59907;SDS011;61804;54.926;73.496;2023-05-08T01:56:28;14.30;;;6.85;;
59907;SDS011;61804;54.926;73.496;2023-05-08T01:58:57;12.05;;;7.32;;
59907;SDS011;61804;54.926;73.496;2023-05-08T02:01:26;8.60;;;6.70;;
59907;SDS011;61804;54.926;73.496;2023-05-08T02:03:55;17.30;;;5.57;;
59907;SDS011;61804;54.926;73.496;2023-05-08T02:06:24;10.00;;;5.95;;
59907;SDS011;61804;54.926;73.496;2023-05-08T02:08:53;10.70;;;5.80;;
59907;SDS011;61804;54.926;73.496;2023-05-08T02:11:22;15.95;;;6.75;;
59907;SDS011;61804;54.926;73.496;2023-05-08T02:13:50;9.50;;;5.93;;
59907;SDS011;61804;54.926;73.496;2023-05-08T02:16:18;14.68;;;6.30;;
59907;SDS011;61804;54.926;73.496;2023-05-08T02:18:48;14.82;;;6.85;;
59907;SDS011;61804;54.926;73.496;2023-05-08T02:21:17;9.52;;;5.00;;
59907;SDS011;61804;54.926;73.496;2023-05-08T02:23:45;12.45;;;6.30;;
59907;SDS011;61804;54.926;73.496;2023-05-08T02:26:15;39.80;;;8.40;;
59907;SDS011;61804;54.926;73.496;2023-05-08T02:28:44;11.70;;;4.88;;
59907;SDS011;61804;54.926;73.496;2023-05-08T02:31:11;12.43;;;7.25;;
59907;SDS011;61804;54.926;73.496;2023-05-08T02:33:40;6.82;;;4.78;;
59907;SDS011;61804;54.926;73.496;2023-05-08T02:36:09;8.15;;;4.50;;
59907;SDS011;61804;54.926;73.496;2023-05-08T02:38:37;21.83;;;8.77;;
59907;SDS011;61804;54.926;73.496;2023-05-08T02:41:06;15.07;;;7.28;;
59907;SDS011;61804;54.926;73.496;2023-05-08T02:43:35;22.63;;;6.63;;
59907;SDS011;61804;54.926;73.496;2023-05-08T02:46:24;8.43;;;5.75;;
59907;SDS011;61804;54.926;73.496;2023-05-08T02:48:59;12.95;;;7.05;;
59907;SDS011;61804;54.926;73.496;2023-05-08T02:56:42;25.05;;;8.88;;
59907;SDS011;61804;54.926;73.496;2023-05-08T03:04:11;12.15;;;7.72;;
59907;SDS011;61804;54.926;73.496;2023-05-08T03:06:46;8.35;;;5.93;;
59907;SDS011;61804;54.926;73.496;2023-05-08T03:09:19;19.25;;;8.27;;
59907;SDS011;61804;54.926;73.496;2023-05-08T03:11:49;19.58;;;10.63;;
59907;SDS011;61804;54.926;73.496;2023-05-08T03:14:19;22.38;;;10.55;;
59907;SDS011;61804;54.926;73.496;2023-05-08T03:16:48;14.98;;;6.82;;
59907;SDS011;61804;54.926;73.496;2023-05-08T03:19:20;20.60;;;8.55;;
59907;SDS011;61804;54.926;73.496;2023-05-08T03:21:50;19.55;;;8.60;;
59907;SDS011;61804;54.926;73.496;2023-05-08T03:24:18;11.57;;;7.88;;
59907;SDS011;61804;54.926;73.496;2023-05-08T03:26:47;14.07;;;7.93;;
59907;SDS011;61804;54.926;73.496;2023-05-08T03:29:17;16.70;;;7.28;;
59907;SDS011;61804;54.926;73.496;2023-05-08T03:31:47;16.88;;;8.52;;
59907;SDS011;61804;54.926;73.496;2023-05-08T03:34:16;15.50;;;8.27;;
59907;SDS011;61804;54.926;73.496;2023-05-08T03:36:45;19.75;;;7.80;;
59907;SDS011;61804;54.926;73.496;2023-05-08T03:39:14;17.67;;;8.77;;
59907;SDS011;61804;54.926;73.496;2023-05-08T03:41:42;29.92;;;13.82;;
59907;SDS011;61804;54.926;73.496;2023-05-08T03:44:11;12.40;;;8.57;;
59907;SDS011;61804;54.926;73.496;2023-05-08T03:46:40;35.58;;;10.75;;
59907;SDS011;61804;54.926;73.496;2023-05-08T03:49:08;18.25;;;10.23;;
59907;SDS011;61804;54.926;73.496;2023-05-08T03:51:39;38.58;;;14.18;;
59907;SDS011;61804;54.926;73.496;2023-05-08T03:54:07;27.48;;;15.10;;
59907;SDS011;61804;54.926;73.496;2023-05-08T03:56:35;21.15;;;14.38;;
59907;SDS011;61804;54.926;73.496;2023-05-08T03:59:09;28.13;;;16.27;;
59907;SDS011;61804;54.926;73.496;2023-05-08T04:01:58;20.63;;;16.48;;
59907;SDS011;61804;54.926;73.496;2023-05-08T04:04:34;29.88;;;18.48;;
59907;SDS011;61804;54.926;73.496;2023-05-08T04:07:22;31.27;;;19.13;;
59907;SDS011;61804;54.926;73.496;2023-05-08T04:15:21;26.42;;;21.52;;
59907;SDS011;61804;54.926;73.496;2023-05-08T04:17:56;40.80;;;26.42;;
59907;SDS011;61804;54.926;73.496;2023-05-08T04:20:25;41.75;;;32.85;;
59907;SDS011;61804;54.926;73.496;2023-05-08T04:22:54;43.80;;;38.95;;
59907;SDS011;61804;54.926;73.496;2023-05-08T04:25:23;64.38;;;57.88;;
59907;SDS011;61804;54.926;73.496;2023-05-08T04:27:52;73.10;;;62.50;;
59907;SDS011;61804;54.926;73.496;2023-05-08T04:30:22;87.22;;;78.28;;
59907;SDS011;61804;54.926;73.496;2023-05-08T04:32:50;98.90;;;89.28;;
59907;SDS011;61804;54.926;73.496;2023-05-08T04:35:18;118.00;;;105.60;;
59907;SDS011;61804;54.926;73.496;2023-05-08T04:37:48;124.00;;;111.07;;
59907;SDS011;61804;54.926;73.496;2023-05-08T04:40:19;127.22;;;113.97;;
59907;SDS011;61804;54.926;73.496;2023-05-08T04:42:47;104.78;;;94.07;;
59907;SDS011;61804;54.926;73.496;2023-05-08T04:45:18;121.43;;;108.68;;
59907;SDS011;61804;54.926;73.496;2023-05-08T04:47:46;129.32;;;116.82;;
59907;SDS011;61804;54.926;73.496;2023-05-08T04:50:14;143.23;;;128.60;;
59907;SDS011;61804;54.926;73.496;2023-05-08T04:52:42;186.82;;;169.15;;
59907;SDS011;61804;54.926;73.496;2023-05-08T04:55:12;209.90;;;190.05;;
59907;SDS011;61804;54.926;73.496;2023-05-08T04:57:39;214.05;;;193.30;;
59907;SDS011;61804;54.926;73.496;2023-05-08T05:00:08;227.02;;;204.23;;
59907;SDS011;61804;54.926;73.496;2023-05-08T05:02:41;246.60;;;221.65;;
59907;SDS011;61804;54.926;73.496;2023-05-08T05:05:09;244.73;;;221.02;;
59907;SDS011;61804;54.926;73.496;2023-05-08T05:07:37;241.63;;;218.48;;
59907;SDS011;61804;54.926;73.496;2023-05-08T05:10:06;217.55;;;196.45;;
59907;SDS011;61804;54.926;73.496;2023-05-08T05:12:35;249.95;;;226.18;;
59907;SDS011;61804;54.926;73.496;2023-05-08T05:15:06;226.27;;;204.32;;
59907;SDS011;61804;54.926;73.496;2023-05-08T05:17:37;194.23;;;174.88;;
59907;SDS011;61804;54.926;73.496;2023-05-08T05:20:07;197.38;;;177.55;;
59907;SDS011;61804;54.926;73.496;2023-05-08T05:22:34;175.30;;;156.70;;
59907;SDS011;61804;54.926;73.496;2023-05-08T05:25:02;153.82;;;137.45;;
59907;SDS011;61804;54.926;73.496;2023-05-08T05:27:29;132.85;;;119.35;;
59907;SDS011;61804;54.926;73.496;2023-05-08T05:29:57;124.85;;;112.88;;
59907;SDS011;61804;54.926;73.496;2023-05-08T05:32:26;150.98;;;99.53;;
59907;SDS011;61804;54.926;73.496;2023-05-08T05:34:55;105.30;;;94.53;;
59907;SDS011;61804;54.926;73.496;2023-05-08T05:37:24;109.40;;;91.03;;
59907;SDS011;61804;54.926;73.496;2023-05-08T05:39:53;121.10;;;97.35;;
59907;SDS011;61804;54.926;73.496;2023-05-08T05:42:23;110.18;;;91.28;;
59907;SDS011;61804;54.926;73.496;2023-05-08T05:44:52;88.28;;;77.13;;
59907;SDS011;61804;54.926;73.496;2023-05-08T05:47:20;80.70;;;72.05;;
59907;SDS011;61804;54.926;73.496;2023-05-08T05:49:47;80.70;;;72.00;;
59907;SDS011;61804;54.926;73.496;2023-05-08T05:52:15;75.85;;;66.07;;
59907;SDS011;61804;54.926;73.496;2023-05-08T05:54:44;68.57;;;57.33;;
59907;SDS011;61804;54.926;73.496;2023-05-08T05:57:12;71.32;;;55.40;;
59907;SDS011;61804;54.926;73.496;2023-05-08T05:59:40;69.60;;;58.42;;
59907;SDS011;61804;54.926;73.496;2023-05-08T06:02:08;98.32;;;63.72;;
59907;SDS011;61804;54.926;73.496;2023-05-08T06:04:40;79.28;;;62.13;;
59907;SDS011;61804;54.926;73.496;2023-05-08T06:07:08;75.25;;;64.63;;
59907;SDS011;61804;54.926;73.496;2023-05-08T06:09:37;92.75;;;78.53;;
59907;SDS011;61804;54.926;73.496;2023-05-08T06:12:05;168.07;;;90.53;;
59907;SDS011;61804;54.926;73.496;2023-05-08T06:14:35;68.93;;;60.00;;
59907;SDS011;61804;54.926;73.496;2023-05-08T06:17:03;72.97;;;54.60;;
59907;SDS011;61804;54.926;73.496;2023-05-08T06:19:30;74.53;;;57.25;;
59907;SDS011;61804;54.926;73.496;2023-05-08T06:21:57;63.65;;;52.95;;
59907;SDS011;61804;54.926;73.496;2023-05-08T06:24:26;99.22;;;65.55;;
59907;SDS011;61804;54.926;73.496;2023-05-08T06:26:55;83.82;;;56.38;;
59907;SDS011;61804;54.926;73.496;2023-05-08T06:29:23;82.70;;;60.83;;
59907;SDS011;61804;54.926;73.496;2023-05-08T06:31:52;58.50;;;52.22;;
59907;SDS011;61804;54.926;73.496;2023-05-08T06:34:21;77.93;;;55.42;;
59907;SDS011;61804;54.926;73.496;2023-05-08T06:36:49;95.95;;;67.15;;
59907;SDS011;61804;54.926;73.496;2023-05-08T06:39:17;76.85;;;59.58;;
59907;SDS011;61804;54.926;73.496;2023-05-08T06:41:46;86.13;;;66.68;;
59907;SDS011;61804;54.926;73.496;2023-05-08T06:44:20;86.10;;;60.20;;
59907;SDS011;61804;54.926;73.496;2023-05-08T06:46:47;104.45;;;77.80;;
59907;SDS011;61804;54.926;73.496;2023-05-08T06:49:15;92.13;;;70.70;;
59907;SDS011;61804;54.926;73.496;2023-05-08T06:51:42;94.80;;;68.93;;
59907;SDS011;61804;54.926;73.496;2023-05-08T06:54:10;83.22;;;55.50;;
59907;SDS011;61804;54.926;73.496;2023-05-08T06:56:37;94.38;;;65.78;;
59907;SDS011;61804;54.926;73.496;2023-05-08T06:59:05;70.20;;;60.95;;
59907;SDS011;61804;54.926;73.496;2023-05-08T07:01:33;70.15;;;57.92;;
59907;SDS011;61804;54.926;73.496;2023-05-08T07:04:00;82.57;;;53.90;;
59907;SDS011;61804;54.926;73.496;2023-05-08T07:06:29;84.32;;;54.42;;
59907;SDS011;61804;54.926;73.496;2023-05-08T07:09:00;69.68;;;54.22;;
59907;SDS011;61804;54.926;73.496;2023-05-08T07:11:29;60.15;;;49.10;;
59907;SDS011;61804;54.926;73.496;2023-05-08T07:13:57;78.97;;;50.83;;
59907;SDS011;61804;54.926;73.496;2023-05-08T07:16:24;68.38;;;55.22;;
59907;SDS011;61804;54.926;73.496;2023-05-08T07:18:52;65.72;;;49.35;;
59907;SDS011;61804;54.926;73.496;2023-05-08T07:21:20;62.15;;;49.35;;
59907;SDS011;61804;54.926;73.496;2023-05-08T07:23:49;70.63;;;47.53;;
59907;SDS011;61804;54.926;73.496;2023-05-08T07:26:19;57.42;;;46.00;;
59907;SDS011;61804;54.926;73.496;2023-05-08T07:28:48;53.95;;;43.60;;
59907;SDS011;61804;54.926;73.496;2023-05-08T07:31:16;62.92;;;48.60;;
59907;SDS011;61804;54.926;73.496;2023-05-08T07:33:43;53.70;;;43.83;;
59907;SDS011;61804;54.926;73.496;2023-05-08T07:36:12;52.95;;;41.22;;
59907;SDS011;61804;54.926;73.496;2023-05-08T07:38:41;51.50;;;45.03;;
59907;SDS011;61804;54.926;73.496;2023-05-08T07:41:12;69.68;;;43.53;;
59907;SDS011;61804;54.926;73.496;2023-05-08T07:43:39;92.10;;;52.38;;
59907;SDS011;61804;54.926;73.496;2023-05-08T07:46:18;62.38;;;55.17;;
59907;SDS011;61804;54.926;73.496;2023-05-08T07:48:48;62.75;;;50.08;;
59907;SDS011;61804;54.926;73.496;2023-05-08T07:51:17;90.72;;;60.97;;
59907;SDS011;61804;54.926;73.496;2023-05-08T07:53:45;87.78;;;78.25;;
59907;SDS011;61804;54.926;73.496;2023-05-08T07:56:14;79.05;;;70.93;;
59907;SDS011;61804;54.926;73.496;2023-05-08T07:58:42;101.45;;;72.82;;
59907;SDS011;61804;54.926;73.496;2023-05-08T08:01:11;87.55;;;70.38;;
59907;SDS011;61804;54.926;73.496;2023-05-08T08:03:39;143.38;;;71.60;;
59907;SDS011;61804;54.926;73.496;2023-05-08T08:06:07;86.82;;;73.60;;
59907;SDS011;61804;54.926;73.496;2023-05-08T08:08:35;82.50;;;72.80;;
59907;SDS011;61804;54.926;73.496;2023-05-08T08:11:05;88.60;;;78.97;;
59907;SDS011;61804;54.926;73.496;2023-05-08T08:13:33;114.82;;;79.13;;
59907;SDS011;61804;54.926;73.496;2023-05-08T08:16:01;108.97;;;80.78;;
59907;SDS011;61804;54.926;73.496;2023-05-08T08:18:34;97.45;;;84.15;;
59907;SDS011;61804;54.926;73.496;2023-05-08T08:21:04;95.10;;;83.55;;
59907;SDS011;61804;54.926;73.496;2023-05-08T08:23:32;90.82;;;81.75;;
59907;SDS011;61804;54.926;73.496;2023-05-08T08:26:00;93.88;;;80.35;;
59907;SDS011;61804;54.926;73.496;2023-05-08T08:28:30;104.90;;;85.00;;
59907;SDS011;61804;54.926;73.496;2023-05-08T08:30:58;94.78;;;83.93;;
59907;SDS011;61804;54.926;73.496;2023-05-08T08:33:26;91.38;;;82.38;;
59907;SDS011;61804;54.926;73.496;2023-05-08T08:35:55;114.20;;;96.55;;
59907;SDS011;61804;54.926;73.496;2023-05-08T08:38:24;104.13;;;93.28;;
59907;SDS011;61804;54.926;73.496;2023-05-08T08:40:51;106.40;;;94.53;;
59907;SDS011;61804;54.926;73.496;2023-05-08T08:43:21;95.63;;;84.18;;
59907;SDS011;61804;54.926;73.496;2023-05-08T08:45:49;109.03;;;97.80;;
59907;SDS011;61804;54.926;73.496;2023-05-08T08:48:17;105.40;;;94.28;;
59907;SDS011;61804;54.926;73.496;2023-05-08T08:50:46;116.32;;;95.57;;
59907;SDS011;61804;54.926;73.496;2023-05-08T08:53:25;126.38;;;104.63;;
59907;SDS011;61804;54.926;73.496;2023-05-08T08:55:54;108.90;;;97.65;;
59907;SDS011;61804;54.926;73.496;2023-05-08T09:00:51;119.38;;;106.57;;
59907;SDS011;61804;54.926;73.496;2023-05-08T09:03:20;127.35;;;113.22;;
59907;SDS011;61804;54.926;73.496;2023-05-08T09:05:48;118.50;;;105.35;;
59907;SDS011;61804;54.926;73.496;2023-05-08T09:08:16;130.77;;;117.70;;
59907;SDS011;61804;54.926;73.496;2023-05-08T09:10:45;127.72;;;109.35;;
59907;SDS011;61804;54.926;73.496;2023-05-08T09:13:12;128.15;;;115.53;;
59907;SDS011;61804;54.926;73.496;2023-05-08T09:15:40;133.38;;;120.43;;
59907;SDS011;61804;54.926;73.496;2023-05-08T09:18:08;139.13;;;124.35;;
59907;SDS011;61804;54.926;73.496;2023-05-08T09:20:35;135.95;;;122.15;;
59907;SDS011;61804;54.926;73.496;2023-05-08T09:23:04;143.90;;;127.38;;
59907;SDS011;61804;54.926;73.496;2023-05-08T09:25:42;128.02;;;115.65;;
59907;SDS011;61804;54.926;73.496;2023-05-08T09:28:31;142.23;;;119.47;;
59907;SDS011;61804;54.926;73.496;2023-05-08T09:30:58;125.53;;;112.55;;
59907;SDS011;61804;54.926;73.496;2023-05-08T09:33:28;125.13;;;111.55;;
59907;SDS011;61804;54.926;73.496;2023-05-08T09:35:56;130.25;;;116.22;;
59907;SDS011;61804;54.926;73.496;2023-05-08T09:38:36;139.38;;;125.10;;
59907;SDS011;61804;54.926;73.496;2023-05-08T09:41:08;138.18;;;123.93;;
59907;SDS011;61804;54.926;73.496;2023-05-08T09:43:37;141.02;;;127.00;;
59907;SDS011;61804;54.926;73.496;2023-05-08T09:46:22;141.95;;;127.35;;
59907;SDS011;61804;54.926;73.496;2023-05-08T09:48:57;141.43;;;125.32;;
59907;SDS011;61804;54.926;73.496;2023-05-08T09:51:26;136.73;;;122.70;;
59907;SDS011;61804;54.926;73.496;2023-05-08T09:53:55;137.23;;;122.60;;
59907;SDS011;61804;54.926;73.496;2023-05-08T09:56:36;132.98;;;119.78;;
59907;SDS011;61804;54.926;73.496;2023-05-08T09:59:20;136.35;;;122.40;;
59907;SDS011;61804;54.926;73.496;2023-05-08T10:01:49;145.45;;;125.95;;
59907;SDS011;61804;54.926;73.496;2023-05-08T10:04:16;131.57;;;118.03;;
59907;SDS011;61804;54.926;73.496;2023-05-08T10:06:54;131.45;;;118.85;;
59907;SDS011;61804;54.926;73.496;2023-05-08T10:09:21;147.50;;;132.75;;
59907;SDS011;61804;54.926;73.496;2023-05-08T10:11:50;137.30;;;122.57;;
59907;SDS011;61804;54.926;73.496;2023-05-08T10:14:19;148.52;;;133.95;;
59907;SDS011;61804;54.926;73.496;2023-05-08T10:16:47;156.02;;;140.82;;
59907;SDS011;61804;54.926;73.496;2023-05-08T10:19:16;142.82;;;129.23;;
59907;SDS011;61804;54.926;73.496;2023-05-08T10:21:47;161.52;;;145.23;;
59907;SDS011;61804;54.926;73.496;2023-05-08T10:24:19;157.63;;;140.90;;
59907;SDS011;61804;54.926;73.496;2023-05-08T10:27:03;150.32;;;135.57;;
59907;SDS011;61804;54.926;73.496;2023-05-08T10:29:32;151.38;;;137.35;;
59907;SDS011;61804;54.926;73.496;2023-05-08T10:32:00;154.65;;;138.95;;
59907;SDS011;61804;54.926;73.496;2023-05-08T10:34:30;156.85;;;141.13;;
59907;SDS011;61804;54.926;73.496;2023-05-08T10:36:59;151.73;;;136.00;;
59907;SDS011;61804;54.926;73.496;2023-05-08T10:39:27;151.90;;;136.18;;
59907;SDS011;61804;54.926;73.496;2023-05-08T10:41:55;147.88;;;133.55;;
59907;SDS011;61804;54.926;73.496;2023-05-08T10:44:23;158.05;;;141.57;;
59907;SDS011;61804;54.926;73.496;2023-05-08T10:52:33;146.82;;;132.90;;
59907;SDS011;61804;54.926;73.496;2023-05-08T10:55:20;152.48;;;137.50;;
59907;SDS011;61804;54.926;73.496;2023-05-08T11:03:15;146.35;;;130.77;;
59907;SDS011;61804;54.926;73.496;2023-05-08T11:05:46;139.35;;;125.75;;
59907;SDS011;61804;54.926;73.496;2023-05-08T11:08:14;138.13;;;119.78;;
59907;SDS011;61804;54.926;73.496;2023-05-08T11:10:50;126.00;;;112.65;;
59907;SDS011;61804;54.926;73.496;2023-05-08T11:13:19;138.63;;;124.75;;
59907;SDS011;61804;54.926;73.496;2023-05-08T11:15:53;136.10;;;122.78;;
59907;SDS011;61804;54.926;73.496;2023-05-08T11:18:20;134.68;;;120.72;;
59907;SDS011;61804;54.926;73.496;2023-05-08T11:20:57;140.23;;;126.10;;
59907;SDS011;61804;54.926;73.496;2023-05-08T11:23:28;119.43;;;107.38;;
59907;SDS011;61804;54.926;73.496;2023-05-08T11:26:00;133.82;;;113.68;;
59907;SDS011;61804;54.926;73.496;2023-05-08T11:31:03;71.07;;;63.70;;
59907;SDS011;61804;54.926;73.496;2023-05-08T11:33:35;75.88;;;67.53;;
59907;SDS011;61804;54.926;73.496;2023-05-08T11:36:17;90.65;;;81.38;;
59907;SDS011;61804;54.926;73.496;2023-05-08T11:41:44;102.00;;;85.65;;
59907;SDS011;61804;54.926;73.496;2023-05-08T11:44:15;84.95;;;68.95;;
59907;SDS011;61804;54.926;73.496;2023-05-08T11:46:48;75.60;;;67.28;;
59907;SDS011;61804;54.926;73.496;2023-05-08T11:49:17;59.63;;;53.97;;
59907;SDS011;61804;54.926;73.496;2023-05-08T11:51:50;56.88;;;51.33;;
59907;SDS011;61804;54.926;73.496;2023-05-08T11:56:50;72.72;;;65.30;;
59907;SDS011;61804;54.926;73.496;2023-05-08T11:59:19;69.68;;;62.97;;
59907;SDS011;61804;54.926;73.496;2023-05-08T12:01:48;78.20;;;69.13;;
59907;SDS011;61804;54.926;73.496;2023-05-08T12:04:16;78.28;;;70.47;;
59907;SDS011;61804;54.926;73.496;2023-05-08T12:06:43;83.85;;;75.22;;
59907;SDS011;61804;54.926;73.496;2023-05-08T12:09:11;99.28;;;89.40;;
59907;SDS011;61804;54.926;73.496;2023-05-08T12:11:57;131.93;;;118.68;;
59907;SDS011;61804;54.926;73.496;2023-05-08T12:14:25;154.07;;;139.45;;
59907;SDS011;61804;54.926;73.496;2023-05-08T12:16:52;191.13;;;171.15;;
59907;SDS011;61804;54.926;73.496;2023-05-08T12:19:20;178.48;;;160.60;;
59907;SDS011;61804;54.926;73.496;2023-05-08T12:21:49;191.55;;;172.95;;
59907;SDS011;61804;54.926;73.496;2023-05-08T12:24:17;190.55;;;172.52;;
59907;SDS011;61804;54.926;73.496;2023-05-08T12:26:53;204.60;;;184.30;;
59907;SDS011;61804;54.926;73.496;2023-05-08T12:29:23;207.35;;;187.38;;
59907;SDS011;61804;54.926;73.496;2023-05-08T12:31:51;206.15;;;182.27;;
59907;SDS011;61804;54.926;73.496;2023-05-08T12:34:19;185.75;;;166.93;;
59907;SDS011;61804;54.926;73.496;2023-05-08T12:36:46;204.38;;;181.63;;
59907;SDS011;61804;54.926;73.496;2023-05-08T12:39:14;215.60;;;193.32;;
59907;SDS011;61804;54.926;73.496;2023-05-08T12:41:45;214.82;;;191.48;;
59907;SDS011;61804;54.926;73.496;2023-05-08T12:44:22;203.52;;;182.10;;
59907;SDS011;61804;54.926;73.496;2023-05-08T12:46:51;190.98;;;170.38;;
59907;SDS011;61804;54.926;73.496;2023-05-08T12:49:26;192.73;;;172.77;;
59907;SDS011;61804;54.926;73.496;2023-05-08T12:52:04;192.27;;;173.40;;
59907;SDS011;61804;54.926;73.496;2023-05-08T12:54:36;180.30;;;162.77;;
59907;SDS011;61804;54.926;73.496;2023-05-08T12:57:09;182.20;;;164.10;;
59907;SDS011;61804;54.926;73.496;2023-05-08T12:59:38;166.48;;;150.32;;
59907;SDS011;61804;54.926;73.496;2023-05-08T13:02:17;149.98;;;134.80;;
59907;SDS011;61804;54.926;73.496;2023-05-08T13:04:45;152.68;;;136.48;;
59907;SDS011;61804;54.926;73.496;2023-05-08T13:07:12;154.82;;;139.38;;
59907;SDS011;61804;54.926;73.496;2023-05-08T13:09:54;144.43;;;128.65;;
59907;SDS011;61804;54.926;73.496;2023-05-08T13:12:22;159.80;;;143.05;;
59907;SDS011;61804;54.926;73.496;2023-05-08T13:14:49;156.70;;;141.35;;
59907;SDS011;61804;54.926;73.496;2023-05-08T13:17:19;163.40;;;146.77;;
59907;SDS011;61804;54.926;73.496;2023-05-08T13:19:47;161.43;;;146.38;;
59907;SDS011;61804;54.926;73.496;2023-05-08T13:22:14;157.57;;;140.68;;
59907;SDS011;61804;54.926;73.496;2023-05-08T13:24:42;164.25;;;148.82;;
59907;SDS011;61804;54.926;73.496;2023-05-08T13:27:10;181.30;;;162.43;;
59907;SDS011;61804;54.926;73.496;2023-05-08T13:29:39;193.55;;;174.77;;
59907;SDS011;61804;54.926;73.496;2023-05-08T13:32:08;188.45;;;170.02;;
59907;SDS011;61804;54.926;73.496;2023-05-08T13:34:36;197.85;;;177.30;;
59907;SDS011;61804;54.926;73.496;2023-05-08T13:37:05;195.02;;;173.70;;
59907;SDS011;61804;54.926;73.496;2023-05-08T13:39:38;210.90;;;187.07;;
59907;SDS011;61804;54.926;73.496;2023-05-08T13:42:09;190.10;;;169.40;;
59907;SDS011;61804;54.926;73.496;2023-05-08T13:44:36;181.65;;;162.65;;
59907;SDS011;61804;54.926;73.496;2023-05-08T13:47:03;192.40;;;169.52;;
59907;SDS011;61804;54.926;73.496;2023-05-08T13:49:31;210.25;;;170.43;;
59907;SDS011;61804;54.926;73.496;2023-05-08T13:51:59;174.38;;;157.05;;
59907;SDS011;61804;54.926;73.496;2023-05-08T13:54:51;170.85;;;152.63;;
59907;SDS011;61804;54.926;73.496;2023-05-08T13:57:19;160.13;;;143.15;;
59907;SDS011;61804;54.926;73.496;2023-05-08T13:59:47;166.68;;;148.98;;
59907;SDS011;61804;54.926;73.496;2023-05-08T14:02:15;147.48;;;132.38;;
59907;SDS011;61804;54.926;73.496;2023-05-08T14:04:42;178.20;;;143.20;;
59907;SDS011;61804;54.926;73.496;2023-05-08T14:07:10;157.80;;;141.50;;
59907;SDS011;61804;54.926;73.496;2023-05-08T14:09:38;169.65;;;148.30;;
59907;SDS011;61804;54.926;73.496;2023-05-08T14:12:06;173.70;;;147.73;;
59907;SDS011;61804;54.926;73.496;2023-05-08T14:14:35;156.10;;;140.52;;
59907;SDS011;61804;54.926;73.496;2023-05-08T14:17:03;165.50;;;144.25;;
59907;SDS011;61804;54.926;73.496;2023-05-08T14:19:40;136.73;;;122.13;;
59907;SDS011;61804;54.926;73.496;2023-05-08T14:22:23;133.15;;;118.45;;
59907;SDS011;61804;54.926;73.496;2023-05-08T14:24:53;123.05;;;110.35;;
59907;SDS011;61804;54.926;73.496;2023-05-08T14:27:22;142.65;;;112.85;;
59907;SDS011;61804;54.926;73.496;2023-05-08T14:29:51;117.18;;;105.05;;
59907;SDS011;61804;54.926;73.496;2023-05-08T14:32:20;110.90;;;98.50;;
59907;SDS011;61804;54.926;73.496;2023-05-08T14:34:47;115.15;;;94.82;;
59907;SDS011;61804;54.926;73.496;2023-05-08T14:37:24;100.22;;;88.90;;
59907;SDS011;61804;54.926;73.496;2023-05-08T14:39:52;104.75;;;83.75;;
59907;SDS011;61804;54.926;73.496;2023-05-08T14:42:22;91.65;;;78.53;;
59907;SDS011;61804;54.926;73.496;2023-05-08T14:45:08;106.63;;;78.97;;
59907;SDS011;61804;54.926;73.496;2023-05-08T14:47:37;91.20;;;76.15;;
59907;SDS011;61804;54.926;73.496;2023-05-08T14:50:05;86.20;;;76.90;;
59907;SDS011;61804;54.926;73.496;2023-05-08T14:52:32;84.10;;;73.80;;
59907;SDS011;61804;54.926;73.496;2023-05-08T14:55:01;88.88;;;79.03;;
59907;SDS011;61804;54.926;73.496;2023-05-08T14:57:29;89.97;;;80.95;;
59907;SDS011;61804;54.926;73.496;2023-05-08T14:59:57;97.50;;;76.93;;
59907;SDS011;61804;54.926;73.496;2023-05-08T15:05:17;103.78;;;82.68;;
59907;SDS011;61804;54.926;73.496;2023-05-08T15:07:45;89.63;;;75.95;;
59907;SDS011;61804;54.926;73.496;2023-05-08T15:10:12;91.63;;;70.50;;
59907;SDS011;61804;54.926;73.496;2023-05-08T15:12:43;91.10;;;62.92;;
59907;SDS011;61804;54.926;73.496;2023-05-08T15:15:11;72.28;;;62.22;;